AMQ432 EPKT-DTTJ
Flight info
| Callsign | AMQ432 |
|---|---|
| Flight time | 2h 38m |
| Altitude | 36000 |
| Route | TUSIN DCT VALPI DCT KOPRY DCT VELUG/N0446F350 DCT AMANO DCT SENTI/N0451F360 DCT RALAK/N0409F240 P623 RIMSA UG362 LIRMI G362 JBA |
| Aircraft | A320/M-SDE3FGHIRWY/LB1 |
Departure
| Time | 2026-04-27 21:00 |
|---|---|
| Airport | Katowice Wojciech Korfanty International Airport (EPKT) |
Arrival
| Time | 2026-04-27 23:39 |
|---|---|
| Airport | Djerba Zarzis International Airport (DTTJ) |
| Time | Latitude | Longitude | Altitude | Speed | Heading |
|---|---|---|---|---|---|
| 2026-04-27 20:23 | 50.47179 | 19.07342 | 991 ft | 0 kts | 180° |
| 2026-04-27 20:49 | 50.47185 | 19.07343 | 990 ft | 2 kts | 178° |
| 2026-04-27 20:49 | 50.47204 | 19.07340 | 998 ft | 3 kts | 164° |
| 2026-04-27 20:49 | 50.47222 | 19.07329 | 993 ft | 3 kts | 139° |
| 2026-04-27 20:49 | 50.47234 | 19.07306 | 993 ft | 2 kts | 99° |
| 2026-04-27 20:50 | 50.47235 | 19.07296 | 993 ft | 0 kts | 90° |
| 2026-04-27 20:51 | 50.47235 | 19.07302 | 993 ft | 5 kts | 90° |
| 2026-04-27 20:52 | 50.47235 | 19.07395 | 993 ft | 8 kts | 90° |
| 2026-04-27 20:52 | 50.47235 | 19.07467 | 994 ft | 5 kts | 90° |
| 2026-04-27 20:52 | 50.47236 | 19.07520 | 994 ft | 8 kts | 90° |
| 2026-04-27 20:52 | 50.47234 | 19.07713 | 996 ft | 20 kts | 90° |
| 2026-04-27 20:53 | 50.47233 | 19.07928 | 999 ft | 20 kts | 90° |
| 2026-04-27 20:53 | 50.47233 | 19.08142 | 997 ft | 20 kts | 90° |
| 2026-04-27 20:53 | 50.47233 | 19.08357 | 1000 ft | 20 kts | 90° |
| 2026-04-27 20:53 | 50.47232 | 19.08571 | 1002 ft | 20 kts | 90° |
| 2026-04-27 20:54 | 50.47231 | 19.09000 | 1003 ft | 20 kts | 90° |
| 2026-04-27 20:54 | 50.47231 | 19.09212 | 1008 ft | 20 kts | 90° |
| 2026-04-27 20:54 | 50.47231 | 19.09427 | 1009 ft | 20 kts | 90° |
| 2026-04-27 20:55 | 50.47231 | 19.09642 | 1011 ft | 20 kts | 90° |
| 2026-04-27 20:55 | 50.47230 | 19.09858 | 1012 ft | 20 kts | 90° |
| 2026-04-27 20:55 | 50.47256 | 19.10060 | 1014 ft | 19 kts | 52° |
| 2026-04-27 20:55 | 50.47338 | 19.10226 | 1015 ft | 19 kts | 52° |
| 2026-04-27 20:56 | 50.47410 | 19.10368 | 1016 ft | 5 kts | 51° |
| 2026-04-27 20:56 | 50.47410 | 19.10369 | 1016 ft | 0 kts | 51° |
| 2026-04-27 20:58 | 50.47421 | 19.10390 | 1014 ft | 7 kts | 51° |
| 2026-04-27 20:58 | 50.47454 | 19.10436 | 1014 ft | 9 kts | 26° |
| 2026-04-27 20:59 | 50.47545 | 19.10445 | 1014 ft | 14 kts | 360° |
| 2026-04-27 20:59 | 50.47596 | 19.10383 | 1014 ft | 10 kts | 272° |
| 2026-04-27 20:59 | 50.47596 | 19.10267 | 1016 ft | 18 kts | 270° |
| 2026-04-27 20:59 | 50.47598 | 19.09663 | 1011 ft | 91 kts | 270° |
| 2026-04-27 21:00 | 50.47600 | 19.08339 | 1004 ft | 149 kts | 270° |
| 2026-04-27 21:00 | 50.47588 | 19.06698 | 1454 ft | 148 kts | 270° |
| 2026-04-27 21:00 | 50.47560 | 19.05052 | 1863 ft | 153 kts | 270° |
| 2026-04-27 21:00 | 50.47516 | 19.03356 | 2292 ft | 157 kts | 272° |
| 2026-04-27 21:01 | 50.47524 | 19.01625 | 2709 ft | 164 kts | 274° |
| 2026-04-27 21:01 | 50.47549 | 18.99711 | 2806 ft | 191 kts | 274° |
| 2026-04-27 21:01 | 50.47577 | 18.97494 | 3005 ft | 214 kts | 273° |
| 2026-04-27 21:01 | 50.47600 | 18.95028 | 3264 ft | 239 kts | 272° |
| 2026-04-27 21:02 | 50.47610 | 18.92309 | 3732 ft | 256 kts | 271° |
| 2026-04-27 21:02 | 50.47589 | 18.89479 | 4537 ft | 261 kts | 271° |
| 2026-04-27 21:02 | 50.47554 | 18.86623 | 5401 ft | 263 kts | 271° |
| 2026-04-27 21:02 | 50.47511 | 18.83746 | 6252 ft | 265 kts | 271° |
| 2026-04-27 21:03 | 50.47467 | 18.80840 | 7062 ft | 268 kts | 271° |
| 2026-04-27 21:03 | 50.47425 | 18.77900 | 7854 ft | 270 kts | 271° |
| 2026-04-27 21:03 | 50.47384 | 18.74949 | 8657 ft | 272 kts | 271° |
| 2026-04-27 21:03 | 50.47341 | 18.71972 | 9459 ft | 274 kts | 271° |
| 2026-04-27 21:04 | 50.47296 | 18.68966 | 10242 ft | 277 kts | 271° |
| 2026-04-27 21:04 | 50.47252 | 18.65876 | 10603 ft | 294 kts | 271° |
| 2026-04-27 21:04 | 50.47055 | 18.62535 | 10750 ft | 320 kts | 260° |
| 2026-04-27 21:04 | 50.46259 | 18.59167 | 11105 ft | 339 kts | 243° |
| 2026-04-27 21:05 | 50.44772 | 18.56233 | 11719 ft | 350 kts | 224° |
| 2026-04-27 21:05 | 50.42675 | 18.54244 | 12368 ft | 361 kts | 202° |
| 2026-04-27 21:05 | 50.40179 | 18.53582 | 13030 ft | 370 kts | 182° |
| 2026-04-27 21:05 | 50.37585 | 18.53704 | 13679 ft | 375 kts | 180° |
| 2026-04-27 21:06 | 50.34973 | 18.53885 | 14284 ft | 378 kts | 180° |
| 2026-04-27 21:06 | 50.32325 | 18.54090 | 14860 ft | 381 kts | 180° |
| 2026-04-27 21:06 | 50.29664 | 18.54296 | 15435 ft | 384 kts | 180° |
| 2026-04-27 21:06 | 50.26985 | 18.54497 | 16008 ft | 387 kts | 180° |
| 2026-04-27 21:07 | 50.24278 | 18.54686 | 16582 ft | 390 kts | 181° |
| 2026-04-27 21:07 | 50.21558 | 18.54871 | 17142 ft | 393 kts | 181° |
| 2026-04-27 21:07 | 50.18816 | 18.55053 | 17698 ft | 396 kts | 181° |
| 2026-04-27 21:07 | 50.16049 | 18.55235 | 18265 ft | 399 kts | 181° |
| 2026-04-27 21:08 | 50.13260 | 18.55418 | 18773 ft | 403 kts | 181° |
| 2026-04-27 21:08 | 50.10452 | 18.55603 | 19260 ft | 405 kts | 181° |
| 2026-04-27 21:08 | 50.07619 | 18.55786 | 19744 ft | 408 kts | 181° |
| 2026-04-27 21:08 | 50.04769 | 18.55968 | 20239 ft | 411 kts | 181° |
| 2026-04-27 21:09 | 50.01903 | 18.56154 | 20731 ft | 414 kts | 181° |
| 2026-04-27 21:09 | 49.99014 | 18.56340 | 21203 ft | 417 kts | 181° |
| 2026-04-27 21:09 | 49.96106 | 18.56529 | 21671 ft | 420 kts | 181° |
| 2026-04-27 21:09 | 49.93179 | 18.56721 | 22124 ft | 422 kts | 181° |
| 2026-04-27 21:10 | 49.90231 | 18.56915 | 22576 ft | 425 kts | 181° |
| 2026-04-27 21:10 | 49.87269 | 18.56938 | 23000 ft | 425 kts | 188° |
| 2026-04-27 21:10 | 49.84359 | 18.56248 | 23413 ft | 422 kts | 198° |
| 2026-04-27 21:10 | 49.81581 | 18.54815 | 23818 ft | 419 kts | 208° |
| 2026-04-27 21:11 | 49.78993 | 18.52851 | 24157 ft | 420 kts | 211° |
| 2026-04-27 21:11 | 49.76337 | 18.50791 | 24510 ft | 422 kts | 211° |
| 2026-04-27 21:11 | 49.73736 | 18.48796 | 24838 ft | 424 kts | 211° |
| 2026-04-27 21:11 | 49.71086 | 18.46773 | 25177 ft | 426 kts | 211° |
| 2026-04-27 21:12 | 49.68396 | 18.44720 | 25493 ft | 428 kts | 211° |
| 2026-04-27 21:12 | 49.65717 | 18.42673 | 25825 ft | 430 kts | 211° |
| 2026-04-27 21:12 | 49.63070 | 18.40650 | 26147 ft | 431 kts | 211° |
| 2026-04-27 21:12 | 49.60368 | 18.38586 | 26455 ft | 433 kts | 211° |
| 2026-04-27 21:13 | 49.57654 | 18.36514 | 26772 ft | 435 kts | 212° |
| 2026-04-27 21:13 | 49.54936 | 18.34442 | 27078 ft | 437 kts | 212° |
| 2026-04-27 21:13 | 49.52205 | 18.32366 | 27388 ft | 439 kts | 212° |
| 2026-04-27 21:13 | 49.49461 | 18.30289 | 27680 ft | 441 kts | 212° |
| 2026-04-27 21:14 | 49.46713 | 18.28211 | 27970 ft | 442 kts | 212° |
| 2026-04-27 21:14 | 49.43943 | 18.26118 | 28248 ft | 444 kts | 212° |
| 2026-04-27 21:14 | 49.41165 | 18.24018 | 28533 ft | 446 kts | 212° |
| 2026-04-27 21:14 | 49.39316 | 18.22619 | 28712 ft | 447 kts | 212° |
| 2026-04-27 21:15 | 49.35587 | 18.19798 | 29068 ft | 449 kts | 212° |
| 2026-04-27 21:15 | 49.32772 | 18.17676 | 29314 ft | 450 kts | 212° |
| 2026-04-27 21:15 | 49.30875 | 18.16247 | 29481 ft | 451 kts | 212° |
| 2026-04-27 21:15 | 49.27138 | 18.13436 | 29797 ft | 453 kts | 212° |
| 2026-04-27 21:16 | 49.25257 | 18.12023 | 29959 ft | 454 kts | 212° |
| 2026-04-27 21:16 | 49.22423 | 18.09895 | 30163 ft | 455 kts | 212° |
| 2026-04-27 21:16 | 49.19579 | 18.07767 | 30410 ft | 455 kts | 212° |
| 2026-04-27 21:16 | 49.16734 | 18.05645 | 30680 ft | 454 kts | 212° |
| 2026-04-27 21:17 | 49.13900 | 18.03535 | 30936 ft | 453 kts | 212° |
| 2026-04-27 21:17 | 49.11072 | 18.01430 | 31194 ft | 452 kts | 212° |
| 2026-04-27 21:17 | 49.08247 | 17.99326 | 31443 ft | 451 kts | 212° |
| 2026-04-27 21:17 | 49.05428 | 17.97229 | 31675 ft | 451 kts | 212° |
| 2026-04-27 21:18 | 49.02559 | 17.95263 | 31928 ft | 455 kts | 206° |
| 2026-04-27 21:18 | 48.99505 | 17.93897 | 32172 ft | 460 kts | 199° |
| 2026-04-27 21:18 | 48.96401 | 17.92743 | 32405 ft | 459 kts | 199° |
| 2026-04-27 21:18 | 48.93292 | 17.91591 | 32643 ft | 459 kts | 199° |
| 2026-04-27 21:19 | 48.90200 | 17.90442 | 32876 ft | 458 kts | 199° |
| 2026-04-27 21:19 | 48.87102 | 17.89289 | 33114 ft | 458 kts | 200° |
| 2026-04-27 21:19 | 48.84003 | 17.88133 | 33342 ft | 457 kts | 199° |
| 2026-04-27 21:20 | 48.77830 | 17.85835 | 33782 ft | 456 kts | 199° |
| 2026-04-27 21:20 | 48.74745 | 17.84687 | 33999 ft | 456 kts | 199° |
| 2026-04-27 21:20 | 48.71661 | 17.83543 | 34223 ft | 456 kts | 199° |
| 2026-04-27 21:20 | 48.68578 | 17.82402 | 34425 ft | 456 kts | 199° |
| 2026-04-27 21:21 | 48.65497 | 17.81263 | 34622 ft | 455 kts | 199° |
| 2026-04-27 21:21 | 48.62430 | 17.80130 | 34816 ft | 455 kts | 199° |
| 2026-04-27 21:21 | 48.59348 | 17.78993 | 35001 ft | 455 kts | 199° |
| 2026-04-27 21:21 | 48.56270 | 17.77866 | 35180 ft | 455 kts | 199° |
| 2026-04-27 21:22 | 48.53197 | 17.76742 | 35364 ft | 455 kts | 199° |
| 2026-04-27 21:22 | 48.50119 | 17.75616 | 35528 ft | 454 kts | 199° |
| 2026-04-27 21:22 | 48.47045 | 17.74492 | 35697 ft | 454 kts | 199° |
| 2026-04-27 21:22 | 48.43985 | 17.73372 | 35855 ft | 454 kts | 199° |
| 2026-04-27 21:23 | 48.40909 | 17.72247 | 36014 ft | 454 kts | 199° |
| 2026-04-27 21:23 | 48.37838 | 17.71125 | 36158 ft | 454 kts | 199° |
| 2026-04-27 21:23 | 48.31704 | 17.68894 | 36190 ft | 454 kts | 199° |
| 2026-04-27 21:24 | 48.25566 | 17.66670 | 36189 ft | 454 kts | 199° |
| 2026-04-27 21:24 | 48.19430 | 17.64441 | 36190 ft | 454 kts | 199° |
| 2026-04-27 21:25 | 48.13294 | 17.62209 | 36189 ft | 454 kts | 199° |
| 2026-04-27 21:25 | 48.07148 | 17.59985 | 36186 ft | 454 kts | 199° |
| 2026-04-27 21:26 | 48.00995 | 17.57771 | 36183 ft | 455 kts | 199° |
| 2026-04-27 21:26 | 47.94840 | 17.55563 | 36179 ft | 455 kts | 199° |
| 2026-04-27 21:27 | 47.88677 | 17.53351 | 36176 ft | 455 kts | 199° |
| 2026-04-27 21:27 | 47.82550 | 17.51160 | 36175 ft | 456 kts | 199° |
| 2026-04-27 21:28 | 47.76381 | 17.48969 | 36177 ft | 456 kts | 199° |
| 2026-04-27 21:28 | 47.70203 | 17.46769 | 36179 ft | 456 kts | 199° |
| 2026-04-27 21:29 | 47.64026 | 17.44577 | 36181 ft | 457 kts | 199° |
| 2026-04-27 21:29 | 47.57835 | 17.42383 | 36186 ft | 457 kts | 199° |
| 2026-04-27 21:30 | 47.51655 | 17.40194 | 36188 ft | 457 kts | 199° |
| 2026-04-27 21:30 | 47.45481 | 17.38008 | 36179 ft | 457 kts | 198° |
| 2026-04-27 21:31 | 47.39291 | 17.35843 | 36187 ft | 457 kts | 198° |
| 2026-04-27 21:31 | 47.33099 | 17.33683 | 36180 ft | 457 kts | 198° |
| 2026-04-27 21:32 | 47.26908 | 17.31523 | 36181 ft | 457 kts | 198° |
| 2026-04-27 21:32 | 47.20727 | 17.29364 | 36177 ft | 457 kts | 198° |
| 2026-04-27 21:33 | 47.14539 | 17.27198 | 36171 ft | 457 kts | 198° |
| 2026-04-27 21:33 | 47.08357 | 17.25056 | 36165 ft | 457 kts | 198° |
| 2026-04-27 21:34 | 47.02168 | 17.22922 | 36162 ft | 457 kts | 198° |
| 2026-04-27 21:34 | 46.95987 | 17.20786 | 36156 ft | 457 kts | 198° |
| 2026-04-27 21:35 | 46.89791 | 17.18642 | 36158 ft | 457 kts | 198° |
| 2026-04-27 21:35 | 46.83591 | 17.16507 | 36158 ft | 458 kts | 198° |
| 2026-04-27 21:36 | 46.77397 | 17.14378 | 36158 ft | 458 kts | 198° |
| 2026-04-27 21:36 | 46.71192 | 17.12252 | 36163 ft | 458 kts | 198° |
| 2026-04-27 21:37 | 46.64984 | 17.10140 | 36163 ft | 458 kts | 198° |
| 2026-04-27 21:37 | 46.58774 | 17.08030 | 36165 ft | 458 kts | 198° |
| 2026-04-27 21:38 | 46.52558 | 17.05908 | 36167 ft | 459 kts | 197° |
| 2026-04-27 21:38 | 46.46342 | 17.03801 | 36171 ft | 459 kts | 197° |
| 2026-04-27 21:39 | 46.40121 | 17.01702 | 36174 ft | 459 kts | 197° |
| 2026-04-27 21:39 | 46.33896 | 16.99605 | 36167 ft | 459 kts | 197° |
| 2026-04-27 21:40 | 46.27679 | 16.97508 | 36165 ft | 459 kts | 197° |
| 2026-04-27 21:40 | 46.21544 | 16.95081 | 36162 ft | 455 kts | 203° |
| 2026-04-27 21:41 | 46.15539 | 16.92163 | 36156 ft | 455 kts | 203° |
| 2026-04-27 21:41 | 46.09546 | 16.89254 | 36149 ft | 456 kts | 202° |
| 2026-04-27 21:42 | 46.03520 | 16.86344 | 36148 ft | 456 kts | 202° |
| 2026-04-27 21:42 | 45.97497 | 16.83438 | 36146 ft | 456 kts | 202° |
| 2026-04-27 21:43 | 45.91475 | 16.80538 | 36146 ft | 457 kts | 202° |
| 2026-04-27 21:43 | 45.85442 | 16.77645 | 36153 ft | 457 kts | 202° |
| 2026-04-27 21:44 | 45.79409 | 16.74762 | 36147 ft | 457 kts | 202° |
| 2026-04-27 21:44 | 45.73377 | 16.71877 | 36151 ft | 457 kts | 202° |
| 2026-04-27 21:45 | 45.67331 | 16.69000 | 36148 ft | 457 kts | 202° |
| 2026-04-27 21:45 | 45.61299 | 16.66137 | 36150 ft | 457 kts | 202° |
| 2026-04-27 21:46 | 45.56278 | 16.63754 | 36146 ft | 457 kts | 202° |
| 2026-04-27 21:46 | 45.49241 | 16.60413 | 36137 ft | 457 kts | 202° |
| 2026-04-27 21:47 | 45.43203 | 16.57556 | 36139 ft | 458 kts | 202° |
| 2026-04-27 21:47 | 45.37153 | 16.54712 | 36140 ft | 458 kts | 202° |
| 2026-04-27 21:48 | 45.31100 | 16.51863 | 36140 ft | 458 kts | 202° |
| 2026-04-27 21:48 | 45.25046 | 16.49021 | 36142 ft | 458 kts | 201° |
| 2026-04-27 21:49 | 45.19029 | 16.46205 | 36145 ft | 458 kts | 201° |
| 2026-04-27 21:49 | 45.12977 | 16.43377 | 36138 ft | 458 kts | 201° |
| 2026-04-27 21:50 | 45.06879 | 16.40540 | 36141 ft | 458 kts | 201° |
| 2026-04-27 21:50 | 45.00867 | 16.37757 | 36141 ft | 458 kts | 201° |
| 2026-04-27 21:51 | 44.94813 | 16.34943 | 36138 ft | 458 kts | 201° |
| 2026-04-27 21:51 | 44.88760 | 16.32136 | 36140 ft | 458 kts | 201° |
| 2026-04-27 21:52 | 44.83150 | 16.29546 | 36139 ft | 458 kts | 201° |
| 2026-04-27 21:52 | 44.77115 | 16.26773 | 36138 ft | 458 kts | 201° |
| 2026-04-27 21:53 | 44.71051 | 16.23982 | 36139 ft | 458 kts | 201° |
| 2026-04-27 21:53 | 44.65878 | 16.21600 | 36140 ft | 458 kts | 201° |
| 2026-04-27 21:54 | 44.59850 | 16.18840 | 36145 ft | 459 kts | 201° |
| 2026-04-27 21:54 | 44.53780 | 16.16067 | 36143 ft | 459 kts | 201° |
| 2026-04-27 21:55 | 44.47700 | 16.13289 | 36145 ft | 459 kts | 201° |
| 2026-04-27 21:55 | 44.41620 | 16.10522 | 36143 ft | 460 kts | 200° |
| 2026-04-27 21:56 | 44.32486 | 16.06390 | 36140 ft | 460 kts | 200° |
| 2026-04-27 21:57 | 44.27391 | 16.04082 | 36129 ft | 459 kts | 200° |
| 2026-04-27 21:57 | 44.21343 | 16.01346 | 36123 ft | 459 kts | 200° |
| 2026-04-27 21:58 | 44.15265 | 15.98608 | 36116 ft | 459 kts | 200° |
| 2026-04-27 21:58 | 44.09182 | 15.95872 | 36112 ft | 459 kts | 200° |
| 2026-04-27 21:59 | 44.03101 | 15.93142 | 36102 ft | 459 kts | 200° |
| 2026-04-27 21:59 | 43.97022 | 15.90421 | 36096 ft | 459 kts | 200° |
| 2026-04-27 22:00 | 43.90931 | 15.87705 | 36091 ft | 459 kts | 200° |
| 2026-04-27 22:00 | 43.84854 | 15.84999 | 36087 ft | 459 kts | 200° |
| 2026-04-27 22:01 | 43.78776 | 15.82288 | 36088 ft | 459 kts | 200° |
| 2026-04-27 22:01 | 43.72699 | 15.79580 | 36085 ft | 459 kts | 200° |
| 2026-04-27 22:02 | 43.66611 | 15.76882 | 36088 ft | 459 kts | 200° |
| 2026-04-27 22:02 | 43.60531 | 15.74197 | 36087 ft | 459 kts | 200° |
| 2026-04-27 22:03 | 43.54451 | 15.71517 | 36090 ft | 459 kts | 200° |
| 2026-04-27 22:03 | 43.48372 | 15.68844 | 36089 ft | 458 kts | 200° |
| 2026-04-27 22:04 | 43.42288 | 15.66168 | 36094 ft | 458 kts | 200° |
| 2026-04-27 22:04 | 43.36215 | 15.63503 | 36086 ft | 458 kts | 200° |
| 2026-04-27 22:05 | 43.30142 | 15.60852 | 36099 ft | 458 kts | 200° |
| 2026-04-27 22:05 | 43.24073 | 15.58203 | 36103 ft | 458 kts | 200° |
| 2026-04-27 22:06 | 43.18013 | 15.55559 | 36099 ft | 457 kts | 200° |
| 2026-04-27 22:06 | 43.11951 | 15.52921 | 36093 ft | 457 kts | 200° |
| 2026-04-27 22:07 | 43.05895 | 15.50298 | 36097 ft | 456 kts | 200° |
| 2026-04-27 22:07 | 42.99846 | 15.47680 | 36092 ft | 456 kts | 200° |
| 2026-04-27 22:08 | 42.93800 | 15.45070 | 36093 ft | 455 kts | 200° |
| 2026-04-27 22:08 | 42.87778 | 15.42408 | 36071 ft | 454 kts | 201° |
| 2026-04-27 22:08 | 42.84815 | 15.40972 | 35511 ft | 448 kts | 202° |
| 2026-04-27 22:09 | 42.81961 | 15.39520 | 35154 ft | 427 kts | 203° |
| 2026-04-27 22:09 | 42.76501 | 15.36704 | 35104 ft | 424 kts | 203° |
| 2026-04-27 22:10 | 42.70926 | 15.33885 | 35106 ft | 436 kts | 202° |
| 2026-04-27 22:10 | 42.65150 | 15.31027 | 35100 ft | 448 kts | 202° |
| 2026-04-27 22:11 | 42.59201 | 15.28111 | 35103 ft | 453 kts | 202° |
| 2026-04-27 22:11 | 42.53265 | 15.25200 | 35098 ft | 454 kts | 202° |
| 2026-04-27 22:12 | 42.47332 | 15.22284 | 35099 ft | 454 kts | 202° |
| 2026-04-27 22:12 | 42.41404 | 15.19366 | 35104 ft | 454 kts | 202° |
| 2026-04-27 22:13 | 42.35471 | 15.16448 | 35105 ft | 453 kts | 202° |
| 2026-04-27 22:13 | 42.29536 | 15.13555 | 35098 ft | 453 kts | 202° |
| 2026-04-27 22:14 | 42.23602 | 15.10675 | 35099 ft | 454 kts | 202° |
| 2026-04-27 22:14 | 42.17699 | 15.07800 | 35102 ft | 453 kts | 202° |
| 2026-04-27 22:15 | 42.11728 | 15.04887 | 35103 ft | 453 kts | 202° |
| 2026-04-27 22:15 | 42.05793 | 15.02009 | 35100 ft | 453 kts | 202° |
| 2026-04-27 22:16 | 41.99864 | 14.99138 | 35112 ft | 453 kts | 202° |
| 2026-04-27 22:16 | 41.93962 | 14.96283 | 35105 ft | 453 kts | 202° |
| 2026-04-27 22:17 | 41.87987 | 14.93412 | 35116 ft | 453 kts | 201° |
| 2026-04-27 22:17 | 41.82049 | 14.90566 | 35118 ft | 453 kts | 201° |
| 2026-04-27 22:18 | 41.76152 | 14.87731 | 35119 ft | 453 kts | 201° |
| 2026-04-27 22:18 | 41.70177 | 14.84867 | 35126 ft | 453 kts | 201° |
| 2026-04-27 22:19 | 41.64238 | 14.82031 | 35130 ft | 453 kts | 201° |
| 2026-04-27 22:19 | 41.58302 | 14.79205 | 35131 ft | 453 kts | 201° |
| 2026-04-27 22:20 | 41.52367 | 14.76387 | 35135 ft | 453 kts | 201° |
| 2026-04-27 22:20 | 41.46430 | 14.73561 | 35131 ft | 452 kts | 201° |
| 2026-04-27 22:21 | 41.40508 | 14.70752 | 35138 ft | 452 kts | 201° |
| 2026-04-27 22:21 | 41.34618 | 14.67959 | 35134 ft | 452 kts | 201° |
| 2026-04-27 22:22 | 41.28693 | 14.65152 | 35138 ft | 452 kts | 201° |
| 2026-04-27 22:22 | 41.22772 | 14.62366 | 35137 ft | 452 kts | 201° |
| 2026-04-27 22:23 | 41.16838 | 14.59566 | 35138 ft | 452 kts | 201° |
| 2026-04-27 22:23 | 41.10916 | 14.56785 | 35135 ft | 451 kts | 201° |
| 2026-04-27 22:24 | 41.04993 | 14.54008 | 35135 ft | 451 kts | 201° |
| 2026-04-27 22:24 | 40.99071 | 14.51246 | 35135 ft | 451 kts | 201° |
| 2026-04-27 22:25 | 40.93148 | 14.48479 | 35136 ft | 451 kts | 201° |
| 2026-04-27 22:25 | 40.87226 | 14.45715 | 35137 ft | 450 kts | 201° |
| 2026-04-27 22:26 | 40.81320 | 14.42962 | 35136 ft | 450 kts | 201° |
| 2026-04-27 22:26 | 40.75423 | 14.40225 | 35133 ft | 450 kts | 201° |
| 2026-04-27 22:27 | 40.69506 | 14.37484 | 35134 ft | 450 kts | 201° |
| 2026-04-27 22:27 | 40.63601 | 14.34753 | 35131 ft | 449 kts | 201° |
| 2026-04-27 22:28 | 40.57707 | 14.32025 | 35129 ft | 449 kts | 202° |
| 2026-04-27 22:28 | 40.51811 | 14.29296 | 35124 ft | 449 kts | 201° |
| 2026-04-27 22:29 | 40.45913 | 14.26596 | 35125 ft | 449 kts | 201° |
| 2026-04-27 22:29 | 40.40047 | 14.23917 | 35123 ft | 449 kts | 201° |
| 2026-04-27 22:30 | 40.34117 | 14.21196 | 35127 ft | 449 kts | 201° |
| 2026-04-27 22:30 | 40.28232 | 14.18496 | 35125 ft | 448 kts | 201° |
| 2026-04-27 22:31 | 40.22376 | 14.15820 | 35125 ft | 448 kts | 201° |
| 2026-04-27 22:31 | 40.16485 | 14.13137 | 35122 ft | 448 kts | 201° |
| 2026-04-27 22:32 | 40.10551 | 14.10440 | 35125 ft | 448 kts | 201° |
| 2026-04-27 22:32 | 40.04694 | 14.07777 | 35127 ft | 448 kts | 201° |
| 2026-04-27 22:33 | 39.98804 | 14.05099 | 35127 ft | 448 kts | 201° |
| 2026-04-27 22:33 | 39.92879 | 14.02416 | 35130 ft | 448 kts | 201° |
| 2026-04-27 22:34 | 39.86986 | 13.99760 | 35127 ft | 448 kts | 201° |
| 2026-04-27 22:34 | 39.81134 | 13.97121 | 35126 ft | 448 kts | 201° |
| 2026-04-27 22:35 | 39.75247 | 13.94466 | 35125 ft | 448 kts | 201° |
| 2026-04-27 22:35 | 39.69358 | 13.91822 | 35127 ft | 448 kts | 201° |
| 2026-04-27 22:36 | 39.63472 | 13.89188 | 35128 ft | 448 kts | 201° |
| 2026-04-27 22:36 | 39.57581 | 13.86551 | 35133 ft | 448 kts | 201° |
| 2026-04-27 22:37 | 39.51690 | 13.83918 | 35131 ft | 448 kts | 201° |
| 2026-04-27 22:37 | 39.45808 | 13.81295 | 35129 ft | 447 kts | 201° |
| 2026-04-27 22:38 | 39.40890 | 13.79063 | 35128 ft | 447 kts | 203° |
| 2026-04-27 22:38 | 39.35205 | 13.75937 | 35125 ft | 446 kts | 207° |
| 2026-04-27 22:39 | 39.29586 | 13.72543 | 35129 ft | 446 kts | 207° |
| 2026-04-27 22:39 | 39.23951 | 13.69209 | 35134 ft | 446 kts | 206° |
| 2026-04-27 22:40 | 39.18274 | 13.65977 | 35132 ft | 446 kts | 206° |
| 2026-04-27 22:40 | 39.12580 | 13.62777 | 35130 ft | 446 kts | 206° |
| 2026-04-27 22:41 | 39.06900 | 13.59568 | 35130 ft | 446 kts | 206° |
| 2026-04-27 22:41 | 39.01224 | 13.56350 | 35125 ft | 446 kts | 206° |
| 2026-04-27 22:42 | 38.95549 | 13.53134 | 35128 ft | 446 kts | 206° |
| 2026-04-27 22:42 | 38.89870 | 13.49923 | 35125 ft | 446 kts | 206° |
| 2026-04-27 22:43 | 38.84193 | 13.46716 | 35127 ft | 445 kts | 206° |
| 2026-04-27 22:43 | 38.78524 | 13.43523 | 35125 ft | 445 kts | 206° |
| 2026-04-27 22:44 | 38.72864 | 13.40341 | 35127 ft | 444 kts | 206° |
| 2026-04-27 22:44 | 38.67201 | 13.37167 | 35123 ft | 444 kts | 206° |
| 2026-04-27 22:45 | 38.61542 | 13.34007 | 35122 ft | 443 kts | 206° |
| 2026-04-27 22:45 | 38.55893 | 13.30849 | 35126 ft | 443 kts | 206° |
| 2026-04-27 22:46 | 38.50247 | 13.27698 | 35117 ft | 443 kts | 206° |
| 2026-04-27 22:46 | 38.44599 | 13.24560 | 35115 ft | 442 kts | 206° |
| 2026-04-27 22:47 | 38.38959 | 13.21427 | 35118 ft | 442 kts | 207° |
| 2026-04-27 22:47 | 38.33312 | 13.18297 | 35113 ft | 442 kts | 207° |
| 2026-04-27 22:48 | 38.27681 | 13.15183 | 35107 ft | 441 kts | 207° |
| 2026-04-27 22:48 | 38.22053 | 13.12066 | 35107 ft | 441 kts | 208° |
| 2026-04-27 22:49 | 38.16429 | 13.08952 | 35110 ft | 441 kts | 208° |
| 2026-04-27 22:49 | 38.10804 | 13.05848 | 35109 ft | 440 kts | 208° |
| 2026-04-27 22:50 | 38.05191 | 13.02766 | 35113 ft | 439 kts | 208° |
| 2026-04-27 22:50 | 37.99585 | 12.99694 | 35111 ft | 438 kts | 209° |
| 2026-04-27 22:51 | 37.93996 | 12.96627 | 35116 ft | 438 kts | 209° |
| 2026-04-27 22:51 | 37.88408 | 12.93566 | 35115 ft | 437 kts | 209° |
| 2026-04-27 22:52 | 37.82834 | 12.90515 | 35123 ft | 436 kts | 209° |
| 2026-04-27 22:52 | 37.77264 | 12.87471 | 35117 ft | 436 kts | 209° |
| 2026-04-27 22:53 | 37.71696 | 12.84438 | 35119 ft | 435 kts | 209° |
| 2026-04-27 22:53 | 37.66143 | 12.81424 | 35116 ft | 435 kts | 209° |
| 2026-04-27 22:54 | 37.60585 | 12.78405 | 35112 ft | 435 kts | 209° |
| 2026-04-27 22:54 | 37.55032 | 12.75392 | 35110 ft | 434 kts | 209° |
| 2026-04-27 22:55 | 37.49468 | 12.72385 | 35111 ft | 434 kts | 209° |
| 2026-04-27 22:55 | 37.43921 | 12.69389 | 35114 ft | 434 kts | 209° |
| 2026-04-27 22:56 | 37.38367 | 12.66387 | 35111 ft | 434 kts | 209° |
| 2026-04-27 22:56 | 37.32816 | 12.63401 | 35111 ft | 434 kts | 209° |
| 2026-04-27 22:57 | 37.27272 | 12.60422 | 35110 ft | 433 kts | 209° |
| 2026-04-27 22:57 | 37.21734 | 12.57447 | 35107 ft | 433 kts | 209° |
| 2026-04-27 22:58 | 37.16182 | 12.54510 | 35107 ft | 434 kts | 207° |
| 2026-04-27 22:58 | 37.10447 | 12.52007 | 35111 ft | 437 kts | 204° |
| 2026-04-27 22:59 | 37.04618 | 12.49771 | 35111 ft | 438 kts | 203° |
| 2026-04-27 22:59 | 36.98804 | 12.47501 | 35107 ft | 437 kts | 204° |
| 2026-04-27 23:00 | 36.90136 | 12.43949 | 35103 ft | 437 kts | 204° |
| 2026-04-27 23:00 | 36.84401 | 12.41592 | 35110 ft | 437 kts | 204° |
| 2026-04-27 23:01 | 36.78595 | 12.39219 | 35104 ft | 436 kts | 204° |
| 2026-04-27 23:01 | 36.72858 | 12.36895 | 35106 ft | 436 kts | 204° |
| 2026-04-27 23:02 | 36.67139 | 12.34584 | 35105 ft | 436 kts | 204° |
| 2026-04-27 23:02 | 36.61372 | 12.32247 | 35106 ft | 435 kts | 204° |
| 2026-04-27 23:03 | 36.55615 | 12.29918 | 35104 ft | 435 kts | 204° |
| 2026-04-27 23:03 | 36.49863 | 12.27605 | 35103 ft | 434 kts | 204° |
| 2026-04-27 23:04 | 36.44117 | 12.25289 | 35101 ft | 434 kts | 204° |
| 2026-04-27 23:04 | 36.38377 | 12.22979 | 35102 ft | 433 kts | 204° |
| 2026-04-27 23:05 | 36.32646 | 12.20675 | 35099 ft | 433 kts | 204° |
| 2026-04-27 23:05 | 36.26924 | 12.18376 | 35096 ft | 432 kts | 204° |
| 2026-04-27 23:06 | 36.21204 | 12.16085 | 35095 ft | 432 kts | 204° |
| 2026-04-27 23:06 | 36.15488 | 12.13798 | 35091 ft | 431 kts | 204° |
| 2026-04-27 23:07 | 36.09774 | 12.11520 | 35091 ft | 431 kts | 204° |
| 2026-04-27 23:07 | 36.04067 | 12.09243 | 35092 ft | 431 kts | 204° |
| 2026-04-27 23:08 | 35.98368 | 12.06966 | 35094 ft | 430 kts | 204° |
| 2026-04-27 23:08 | 35.92667 | 12.04693 | 35087 ft | 430 kts | 204° |
| 2026-04-27 23:09 | 35.86979 | 12.02429 | 35083 ft | 430 kts | 204° |
| 2026-04-27 23:09 | 35.81281 | 12.00176 | 35083 ft | 430 kts | 204° |
| 2026-04-27 23:10 | 35.75579 | 11.97931 | 35084 ft | 430 kts | 204° |
| 2026-04-27 23:10 | 35.69879 | 11.95688 | 35084 ft | 430 kts | 204° |
| 2026-04-27 23:11 | 35.64181 | 11.93445 | 35115 ft | 434 kts | 206° |
| 2026-04-27 23:11 | 35.58374 | 11.91146 | 35081 ft | 441 kts | 206° |
| 2026-04-27 23:12 | 35.52521 | 11.88849 | 35079 ft | 441 kts | 206° |
| 2026-04-27 23:12 | 35.46671 | 11.86551 | 35080 ft | 441 kts | 206° |
| 2026-04-27 23:13 | 35.40828 | 11.84256 | 35075 ft | 441 kts | 206° |
| 2026-04-27 23:13 | 35.34994 | 11.81976 | 35079 ft | 440 kts | 206° |
| 2026-04-27 23:14 | 35.29151 | 11.79699 | 35074 ft | 439 kts | 206° |
| 2026-04-27 23:14 | 35.23329 | 11.77428 | 35071 ft | 439 kts | 206° |
| 2026-04-27 23:15 | 35.17520 | 11.75163 | 35072 ft | 438 kts | 206° |
| 2026-04-27 23:15 | 35.11713 | 11.72907 | 34888 ft | 438 kts | 206° |
| 2026-04-27 23:16 | 35.08812 | 11.71780 | 34626 ft | 437 kts | 207° |
| 2026-04-27 23:16 | 35.05906 | 11.70647 | 33732 ft | 441 kts | 206° |
| 2026-04-27 23:16 | 35.02976 | 11.69502 | 32802 ft | 443 kts | 206° |
| 2026-04-27 23:16 | 35.00042 | 11.68360 | 31982 ft | 443 kts | 205° |
| 2026-04-27 23:17 | 34.98097 | 11.67610 | 31643 ft | 439 kts | 205° |
| 2026-04-27 23:17 | 34.95202 | 11.66498 | 31044 ft | 435 kts | 205° |
| 2026-04-27 23:17 | 34.91359 | 11.65021 | 30250 ft | 431 kts | 205° |
| 2026-04-27 23:17 | 34.89463 | 11.64293 | 29819 ft | 429 kts | 205° |
| 2026-04-27 23:18 | 34.86637 | 11.63206 | 29222 ft | 425 kts | 205° |
| 2026-04-27 23:18 | 34.83832 | 11.62124 | 28655 ft | 420 kts | 205° |
| 2026-04-27 23:18 | 34.81058 | 11.61054 | 28090 ft | 416 kts | 205° |
| 2026-04-27 23:18 | 34.78318 | 11.59993 | 27533 ft | 412 kts | 205° |
| 2026-04-27 23:19 | 34.75590 | 11.58935 | 26977 ft | 409 kts | 204° |
| 2026-04-27 23:19 | 34.72888 | 11.57892 | 26434 ft | 406 kts | 204° |
| 2026-04-27 23:19 | 34.70212 | 11.56865 | 25900 ft | 403 kts | 204° |
| 2026-04-27 23:19 | 34.67542 | 11.55842 | 25370 ft | 400 kts | 204° |
| 2026-04-27 23:20 | 34.64902 | 11.54829 | 24860 ft | 398 kts | 204° |
| 2026-04-27 23:20 | 34.62273 | 11.53817 | 24350 ft | 395 kts | 204° |
| 2026-04-27 23:20 | 34.59696 | 11.52825 | 23874 ft | 393 kts | 204° |
| 2026-04-27 23:20 | 34.57094 | 11.51825 | 23352 ft | 391 kts | 204° |
| 2026-04-27 23:21 | 34.54520 | 11.50804 | 22882 ft | 384 kts | 207° |
| 2026-04-27 23:21 | 34.52170 | 11.49390 | 22432 ft | 373 kts | 218° |
| 2026-04-27 23:21 | 34.50113 | 11.47490 | 21963 ft | 362 kts | 228° |
| 2026-04-27 23:21 | 34.48286 | 11.45409 | 21528 ft | 358 kts | 228° |
| 2026-04-27 23:22 | 34.46474 | 11.43365 | 21079 ft | 355 kts | 228° |
| 2026-04-27 23:22 | 34.44664 | 11.41333 | 20636 ft | 352 kts | 227° |
| 2026-04-27 23:22 | 34.42873 | 11.39325 | 20177 ft | 350 kts | 227° |
| 2026-04-27 23:22 | 34.41093 | 11.37330 | 19722 ft | 348 kts | 227° |
| 2026-04-27 23:23 | 34.39338 | 11.35367 | 19272 ft | 346 kts | 227° |
| 2026-04-27 23:23 | 34.37571 | 11.33387 | 18805 ft | 345 kts | 227° |
| 2026-04-27 23:23 | 34.35789 | 11.31384 | 18332 ft | 345 kts | 227° |
| 2026-04-27 23:23 | 34.34041 | 11.29400 | 17809 ft | 344 kts | 226° |
| 2026-04-27 23:24 | 34.32306 | 11.27422 | 17330 ft | 342 kts | 226° |
| 2026-04-27 23:24 | 34.30578 | 11.25451 | 16868 ft | 341 kts | 226° |
| 2026-04-27 23:24 | 34.28854 | 11.23487 | 16403 ft | 340 kts | 225° |
| 2026-04-27 23:24 | 34.27133 | 11.21526 | 15945 ft | 339 kts | 225° |
| 2026-04-27 23:25 | 34.25415 | 11.19573 | 15477 ft | 339 kts | 225° |
| 2026-04-27 23:25 | 34.23722 | 11.17651 | 15028 ft | 338 kts | 225° |
| 2026-04-27 23:25 | 34.22007 | 11.15711 | 14557 ft | 338 kts | 225° |
| 2026-04-27 23:25 | 34.20291 | 11.13776 | 14098 ft | 338 kts | 225° |
| 2026-04-27 23:26 | 34.18590 | 11.11819 | 13610 ft | 337 kts | 229° |
| 2026-04-27 23:26 | 34.17176 | 11.09587 | 13124 ft | 333 kts | 238° |
| 2026-04-27 23:26 | 34.15903 | 11.07269 | 12665 ft | 331 kts | 238° |
| 2026-04-27 23:26 | 34.14632 | 11.04960 | 12185 ft | 329 kts | 238° |
| 2026-04-27 23:27 | 34.13368 | 11.02667 | 11704 ft | 327 kts | 237° |
| 2026-04-27 23:27 | 34.12109 | 11.00390 | 11231 ft | 325 kts | 237° |
| 2026-04-27 23:27 | 34.10857 | 10.98126 | 10752 ft | 323 kts | 237° |
| 2026-04-27 23:27 | 34.09612 | 10.95876 | 10373 ft | 318 kts | 237° |
| 2026-04-27 23:28 | 34.08409 | 10.93702 | 10256 ft | 305 kts | 237° |
| 2026-04-27 23:28 | 34.07256 | 10.91620 | 10132 ft | 293 kts | 237° |
| 2026-04-27 23:28 | 34.06142 | 10.89607 | 9974 ft | 284 kts | 237° |
| 2026-04-27 23:28 | 34.05055 | 10.87650 | 9734 ft | 280 kts | 237° |
| 2026-04-27 23:29 | 34.03964 | 10.85684 | 9290 ft | 281 kts | 237° |
| 2026-04-27 23:29 | 34.02886 | 10.83737 | 8749 ft | 277 kts | 236° |
| 2026-04-27 23:29 | 34.01824 | 10.81818 | 8166 ft | 273 kts | 236° |
| 2026-04-27 23:29 | 34.00775 | 10.79926 | 7652 ft | 271 kts | 235° |
| 2026-04-27 23:30 | 33.99723 | 10.78033 | 7147 ft | 271 kts | 234° |
| 2026-04-27 23:30 | 33.98676 | 10.76152 | 6648 ft | 270 kts | 234° |
| 2026-04-27 23:30 | 33.97630 | 10.74274 | 6134 ft | 270 kts | 233° |
| 2026-04-27 23:30 | 33.96571 | 10.72376 | 5566 ft | 276 kts | 233° |
| 2026-04-27 23:31 | 33.95502 | 10.70459 | 5110 ft | 276 kts | 233° |
| 2026-04-27 23:31 | 33.94432 | 10.68540 | 4609 ft | 278 kts | 233° |
| 2026-04-27 23:31 | 33.93355 | 10.66613 | 4200 ft | 275 kts | 233° |
| 2026-04-27 23:31 | 33.92310 | 10.64736 | 4050 ft | 264 kts | 233° |
| 2026-04-27 23:32 | 33.91313 | 10.62946 | 3935 ft | 251 kts | 233° |
| 2026-04-27 23:32 | 33.90365 | 10.61241 | 3828 ft | 239 kts | 232° |
| 2026-04-27 23:32 | 33.89448 | 10.59594 | 3732 ft | 236 kts | 232° |
| 2026-04-27 23:32 | 33.88532 | 10.57953 | 3627 ft | 236 kts | 233° |
| 2026-04-27 23:33 | 33.87619 | 10.56319 | 3514 ft | 236 kts | 232° |
| 2026-04-27 23:33 | 33.86641 | 10.54739 | 3420 ft | 234 kts | 218° |
| 2026-04-27 23:33 | 33.85233 | 10.53991 | 3207 ft | 219 kts | 175° |
| 2026-04-27 23:33 | 33.83848 | 10.54546 | 3016 ft | 210 kts | 136° |
| 2026-04-27 23:34 | 33.83087 | 10.55991 | 2833 ft | 207 kts | 101° |
| 2026-04-27 23:34 | 33.83226 | 10.57682 | 2653 ft | 209 kts | 66° |
| 2026-04-27 23:34 | 33.84028 | 10.59128 | 2474 ft | 205 kts | 59° |
| 2026-04-27 23:34 | 33.84775 | 10.60535 | 2296 ft | 195 kts | 61° |
| 2026-04-27 23:35 | 33.85433 | 10.61845 | 2134 ft | 188 kts | 62° |
| 2026-04-27 23:35 | 33.86090 | 10.63155 | 2051 ft | 173 kts | 63° |
| 2026-04-27 23:35 | 33.86675 | 10.64311 | 1978 ft | 150 kts | 64° |
| 2026-04-27 23:35 | 33.87148 | 10.65357 | 1928 ft | 137 kts | 75° |
| 2026-04-27 23:36 | 33.87259 | 10.66453 | 1645 ft | 131 kts | 89° |
| 2026-04-27 23:36 | 33.87287 | 10.67541 | 1389 ft | 129 kts | 88° |
| 2026-04-27 23:36 | 33.87314 | 10.68621 | 1189 ft | 129 kts | 88° |
| 2026-04-27 23:36 | 33.87341 | 10.69695 | 1004 ft | 127 kts | 88° |
| 2026-04-27 23:37 | 33.87368 | 10.70755 | 841 ft | 128 kts | 87° |
| 2026-04-27 23:37 | 33.87396 | 10.71849 | 693 ft | 133 kts | 87° |
| 2026-04-27 23:37 | 33.87424 | 10.72958 | 540 ft | 130 kts | 86° |
| 2026-04-27 23:37 | 33.87453 | 10.74036 | 380 ft | 129 kts | 86° |
| 2026-04-27 23:38 | 33.87478 | 10.75120 | 227 ft | 130 kts | 83° |
| 2026-04-27 23:38 | 33.87507 | 10.76214 | 53 ft | 130 kts | 84° |
| 2026-04-27 23:38 | 33.87531 | 10.77194 | 21 ft | 102 kts | 87° |
| 2026-04-27 23:38 | 33.87548 | 10.77837 | 21 ft | 52 kts | 89° |
| 2026-04-27 23:39 | 33.87554 | 10.78124 | 23 ft | 30 kts | 88° |
| 2026-04-27 23:39 | 33.87562 | 10.78397 | 20 ft | 33 kts | 89° |
| 2026-04-27 23:39 | 33.87527 | 10.78597 | 21 ft | 14 kts | 158° |
| 2026-04-27 23:39 | 33.87462 | 10.78596 | 21 ft | 6 kts | 180° |
| 2026-04-27 23:40 | 33.87461 | 10.78596 | 21 ft | 0 kts | 181° |
| 2026-04-27 23:40 | 33.87460 | 10.78596 | 21 ft | 2 kts | 181° |
| 2026-04-27 23:40 | 33.87401 | 10.78543 | 22 ft | 14 kts | 258° |
| 2026-04-27 23:40 | 33.87397 | 10.78450 | 27 ft | 8 kts | 269° |
| 2026-04-27 23:41 | 33.87396 | 10.78385 | 27 ft | 10 kts | 268° |
| 2026-04-27 23:41 | 33.87393 | 10.78283 | 27 ft | 12 kts | 267° |
| 2026-04-27 23:41 | 33.87400 | 10.78161 | 26 ft | 16 kts | 267° |
| 2026-04-27 23:41 | 33.87394 | 10.78034 | 26 ft | 15 kts | 268° |
| 2026-04-27 23:42 | 33.87391 | 10.77918 | 27 ft | 13 kts | 268° |
| 2026-04-27 23:42 | 33.87388 | 10.77812 | 27 ft | 12 kts | 269° |
| 2026-04-27 23:42 | 33.87387 | 10.77716 | 26 ft | 11 kts | 269° |
| 2026-04-27 23:42 | 33.87384 | 10.77606 | 26 ft | 15 kts | 267° |
| 2026-04-27 23:43 | 33.87381 | 10.77483 | 27 ft | 14 kts | 268° |
| 2026-04-27 23:43 | 33.87378 | 10.77373 | 27 ft | 13 kts | 267° |
| 2026-04-27 23:43 | 33.87343 | 10.77295 | 27 ft | 11 kts | 207° |
| 2026-04-27 23:43 | 33.87314 | 10.77290 | 27 ft | 2 kts | 131° |
| 2026-04-27 23:44 | 33.87308 | 10.77299 | 27 ft | 1 kts | 131° |
| 2026-04-27 23:44 | 33.87287 | 10.77327 | 27 ft | 9 kts | 133° |
| 2026-04-27 23:44 | 33.87259 | 10.77364 | 27 ft | 4 kts | 132° |
| 2026-04-27 23:44 | 33.87246 | 10.77382 | 27 ft | 2 kts | 131° |
| 2026-04-27 23:45 | 33.87242 | 10.77387 | 27 ft | 0 kts | 131° |